createdAt,value
2022-10-22T00:00:01.580Z,13.05
2022-10-22T00:03:04.795Z,13.18
2022-10-22T00:06:08.680Z,13.47
2022-10-22T00:09:11.951Z,13.32
2022-10-22T00:12:16.196Z,13.93
2022-10-22T00:15:20.721Z,13.18
2022-10-22T00:18:23.811Z,13.85
2022-10-22T00:21:28.962Z,12.90
2022-10-22T00:24:32.412Z,12.50
2022-10-22T00:27:35.533Z,12.07
2022-10-22T00:30:40.046Z,13.48
2022-10-22T00:33:43.203Z,13.02
2022-10-22T00:36:46.467Z,13.05
2022-10-22T00:39:49.598Z,12.80
2022-10-22T00:42:52.829Z,12.18
2022-10-22T00:45:57.473Z,13.00
2022-10-22T00:49:03.961Z,12.73
2022-10-22T00:52:07.749Z,12.48
2022-10-22T00:55:12.398Z,12.07
2022-10-22T00:58:16.676Z,12.55
2022-10-22T01:01:27.411Z,13.43
2022-10-22T01:04:30.941Z,11.07
2022-10-22T01:07:46.846Z,12.27
2022-10-22T01:11:05.442Z,9.98
2022-10-22T01:14:20.042Z,9.90
2022-10-22T01:17:32.705Z,11.57
2022-10-22T01:21:01.427Z,10.70
2022-10-22T01:24:46.572Z,9.07
2022-10-22T01:31:11.120Z,8.80
2022-10-22T01:34:19.700Z,8.90
2022-10-22T01:37:27.116Z,12.25
2022-10-22T01:40:32.995Z,13.07
2022-10-22T01:43:36.392Z,13.05
2022-10-22T01:46:41.054Z,11.60
2022-10-22T01:50:28.766Z,9.88
2022-10-22T01:57:01.745Z,10.35
2022-10-22T02:00:10.835Z,11.60
2022-10-22T02:03:23.737Z,10.93
2022-10-22T02:06:30.750Z,12.02
2022-10-22T02:09:36.850Z,10.35
2022-10-22T02:12:43.505Z,10.48
2022-10-22T02:15:51.501Z,11.07
2022-10-22T02:18:59.784Z,10.95
2022-10-22T02:22:03.226Z,9.88
2022-10-22T02:25:08.297Z,9.77
2022-10-22T02:28:20.666Z,11.05
2022-10-22T02:31:29.295Z,9.98
2022-10-22T02:34:34.371Z,9.88
2022-10-22T02:37:38.383Z,9.60
2022-10-22T02:40:42.335Z,11.32
2022-10-22T02:43:52.758Z,11.85
2022-10-22T02:46:55.919Z,12.65
2022-10-22T02:50:00.405Z,12.45
2022-10-22T02:53:03.684Z,12.63
2022-10-22T02:56:07.540Z,11.93
2022-10-22T02:59:11.268Z,12.52
2022-10-22T03:02:14.652Z,10.57
2022-10-22T03:05:19.383Z,12.10
2022-10-22T03:08:22.596Z,11.82
2022-10-22T03:11:25.909Z,11.53
2022-10-22T03:14:29.104Z,12.00
2022-10-22T03:17:32.191Z,11.73
2022-10-22T03:20:36.674Z,11.93
2022-10-22T03:23:42.846Z,12.07
2022-10-22T03:26:51.610Z,10.80
2022-10-22T03:29:58.471Z,11.45
2022-10-22T03:33:01.608Z,11.40
2022-10-22T03:36:09.375Z,11.70
2022-10-22T03:39:15.518Z,11.18
2022-10-22T03:42:20.688Z,10.98
2022-10-22T03:45:23.880Z,11.63
2022-10-22T03:48:27.366Z,11.70
2022-10-22T03:51:32.069Z,11.45
2022-10-22T03:54:36.218Z,12.95
2022-10-22T04:00:42.816Z,11.68
2022-10-22T04:03:45.951Z,11.45
2022-10-22T04:06:50.502Z,11.85
2022-10-22T04:09:53.864Z,12.77
2022-10-22T04:12:56.999Z,12.87
2022-10-22T04:16:09.408Z,12.80
2022-10-22T04:19:13.132Z,11.75
2022-10-22T04:22:17.715Z,11.32
2022-10-22T04:25:20.868Z,12.52
2022-10-22T04:28:24.329Z,12.52
2022-10-22T04:31:27.975Z,12.25
2022-10-22T04:34:31.344Z,12.43
2022-10-22T04:37:36.153Z,12.40
2022-10-22T04:40:39.399Z,12.70
2022-10-22T04:43:44.242Z,13.93
2022-10-22T04:46:47.422Z,12.20
2022-10-22T04:49:50.587Z,12.33
2022-10-22T04:52:57.175Z,13.10
2022-10-22T04:56:10.124Z,13.27
2022-10-22T04:59:14.607Z,12.50
2022-10-22T05:02:17.685Z,13.38
2022-10-22T05:05:21.347Z,12.43
2022-10-22T05:08:25.917Z,12.95
2022-10-22T05:11:34.864Z,11.23
2022-10-22T05:14:40.294Z,12.88
2022-10-22T05:17:45.658Z,11.50
2022-10-22T05:20:48.757Z,11.75
2022-10-22T05:23:56.843Z,13.70
2022-10-22T05:27:01.583Z,13.35
2022-10-22T05:30:05.824Z,12.90
2022-10-22T05:33:09.704Z,11.75
2022-10-22T05:36:17.236Z,14.35
2022-10-22T05:39:22.139Z,14.20
2022-10-22T05:42:25.455Z,12.23
2022-10-22T05:45:28.664Z,13.47
2022-10-22T05:51:40.378Z,14.23
2022-10-22T05:54:45.090Z,14.32
2022-10-22T05:57:49.235Z,11.23
2022-10-22T06:03:57.441Z,9.05
2022-10-22T06:07:00.613Z,13.25
2022-10-22T06:10:06.125Z,15.05
2022-10-22T06:13:09.293Z,13.00
2022-10-22T06:16:12.678Z,13.65
2022-10-22T06:19:20.281Z,15.73
2022-10-22T06:22:23.688Z,12.38
2022-10-22T06:25:28.654Z,14.25
2022-10-22T06:28:33.918Z,13.68
2022-10-22T06:31:37.622Z,15.43
2022-10-22T06:34:41.149Z,16.05
2022-10-22T06:37:44.304Z,13.60
2022-10-22T06:40:48.729Z,14.30
2022-10-22T06:43:52.484Z,14.63
2022-10-22T06:46:55.817Z,13.98
2022-10-22T06:49:58.936Z,11.60
2022-10-22T06:53:02.118Z,12.52
2022-10-22T06:56:13.220Z,13.33
2022-10-22T06:59:16.550Z,12.77
2022-10-22T07:02:19.793Z,14.00
2022-10-22T07:05:22.948Z,17.03
2022-10-22T07:08:26.396Z,16.90
2022-10-22T07:11:39.314Z,14.45
2022-10-22T07:14:42.402Z,14.95
2022-10-22T07:17:46.669Z,14.05
2022-10-22T07:20:50.839Z,14.82
2022-10-22T07:23:54.081Z,17.38
2022-10-22T07:26:58.793Z,16.33
2022-10-22T07:30:02.089Z,14.65
2022-10-22T07:33:05.448Z,18.50
2022-10-22T07:36:17.405Z,14.53
2022-10-22T07:39:20.637Z,16.27
2022-10-22T07:42:25.147Z,17.27
2022-10-22T07:45:28.717Z,16.17
2022-10-22T07:48:31.860Z,17.83
2022-10-22T07:51:35.104Z,15.50
2022-10-22T07:54:38.289Z,16.80
2022-10-22T07:57:42.821Z,17.23
2022-10-22T08:00:46.337Z,16.95
2022-10-22T08:03:49.928Z,18.60
2022-10-22T08:06:53.100Z,18.15
2022-10-22T08:09:56.741Z,18.73
2022-10-22T08:13:01.461Z,18.63
2022-10-22T08:16:07.428Z,20.42
2022-10-22T08:19:10.638Z,20.25
2022-10-22T08:22:13.927Z,21.27
2022-10-22T08:25:18.841Z,20.35
2022-10-22T08:28:24.074Z,19.55
2022-10-22T08:31:27.188Z,19.88
2022-10-22T08:34:31.300Z,19.95
2022-10-22T08:40:41.751Z,19.27
2022-10-22T08:44:52.278Z,19.27
2022-10-22T08:48:15.581Z,21.27
2022-10-22T08:51:22.600Z,21.02
2022-10-22T08:54:38.201Z,20.10
2022-10-22T08:57:58.005Z,21.17
2022-10-22T09:01:09.468Z,21.35
2022-10-22T09:04:25.095Z,21.17
2022-10-22T09:07:28.371Z,19.95
2022-10-22T09:10:38.109Z,21.07
2022-10-22T09:13:45.724Z,20.15
2022-10-22T09:17:14.593Z,20.27
2022-10-22T09:20:28.602Z,19.92
2022-10-22T09:23:40.847Z,20.52
2022-10-22T09:26:43.914Z,20.77
2022-10-22T09:29:49.501Z,19.40
2022-10-22T09:33:02.153Z,19.92
2022-10-22T09:36:07.801Z,19.80
2022-10-22T09:39:26.472Z,19.27
2022-10-22T09:42:29.779Z,18.73
2022-10-22T09:45:33.800Z,19.13
2022-10-22T09:48:42.651Z,18.17
2022-10-22T09:51:54.720Z,19.52
2022-10-22T09:55:03.580Z,19.75
2022-10-22T09:58:11.681Z,18.63
2022-10-22T10:01:23.064Z,17.20
2022-10-22T10:04:27.709Z,17.02
2022-10-22T10:07:34.428Z,16.90
2022-10-22T10:10:49.027Z,17.13
2022-10-22T10:14:06.538Z,16.50
2022-10-22T10:17:24.509Z,15.27
2022-10-22T10:20:42.427Z,16.92
2022-10-22T10:23:56.740Z,16.60
2022-10-22T10:27:11.685Z,14.75
2022-10-22T10:30:19.684Z,13.60
2022-10-22T10:33:39.322Z,13.77
2022-10-22T10:36:56.065Z,10.55
2022-10-22T10:40:26.064Z,11.15
2022-10-22T10:43:42.672Z,11.45
2022-10-22T10:46:59.501Z,11.52
2022-10-22T10:50:21.243Z,11.27
2022-10-22T10:53:48.744Z,11.25
2022-10-22T10:56:57.825Z,9.55
2022-10-22T11:00:10.231Z,9.35
2022-10-22T11:03:47.581Z,9.45
2022-10-22T11:06:56.311Z,10.00
2022-10-22T11:10:21.065Z,9.95
2022-10-22T11:13:34.515Z,9.30
2022-10-22T11:16:47.106Z,8.57
2022-10-22T11:20:02.452Z,10.02
2022-10-22T11:23:19.886Z,8.50
2022-10-22T11:26:38.448Z,8.65
2022-10-22T11:29:48.761Z,7.97
2022-10-22T11:32:58.537Z,7.85
2022-10-22T11:36:06.277Z,7.75
2022-10-22T11:39:31.716Z,7.05
2022-10-22T11:42:40.909Z,7.15
2022-10-22T11:45:44.743Z,6.97
2022-10-22T11:49:06.116Z,7.25
2022-10-22T11:52:26.945Z,6.55
2022-10-22T11:55:48.245Z,6.22
2022-10-22T11:58:55.656Z,6.15
2022-10-22T12:01:58.791Z,6.25
2022-10-22T12:05:44.450Z,6.17
2022-10-22T12:08:55.134Z,6.30
2022-10-22T12:12:11.975Z,6.30
2022-10-22T12:15:28.345Z,6.15
2022-10-22T12:18:42.300Z,5.78
2022-10-22T12:21:50.767Z,6.75
2022-10-22T12:24:58.117Z,6.40
2022-10-22T12:28:01.488Z,6.82
2022-10-22T12:31:06.503Z,6.47
2022-10-22T12:34:16.589Z,5.95
2022-10-22T12:37:20.421Z,7.10
2022-10-22T12:40:27.498Z,7.10
2022-10-22T12:43:33.406Z,6.78
2022-10-22T12:46:38.139Z,6.38
2022-10-22T12:49:48.880Z,6.68
2022-10-22T12:52:55.499Z,7.15
2022-10-22T12:56:03.681Z,6.68
2022-10-22T12:59:17.475Z,6.10
2022-10-22T13:02:25.589Z,6.22
2022-10-22T13:05:38.811Z,6.35
2022-10-22T13:08:42.804Z,6.32
2022-10-22T13:11:54.317Z,7.57
2022-10-22T13:15:18.702Z,6.95
2022-10-22T13:18:25.897Z,7.78
2022-10-22T13:21:35.450Z,7.43
2022-10-22T13:24:50.840Z,7.38
2022-10-22T13:27:57.498Z,7.60
2022-10-22T13:31:03.912Z,8.23
2022-10-22T13:34:17.138Z,7.35
2022-10-22T13:37:20.518Z,8.85
2022-10-22T13:40:23.870Z,10.70
2022-10-22T13:43:27.528Z,11.50
2022-10-22T13:46:31.356Z,9.82
2022-10-22T13:49:36.126Z,10.65
2022-10-22T13:52:43.841Z,9.98
2022-10-22T13:55:47.616Z,12.07
2022-10-22T13:58:51.268Z,11.88
2022-10-22T14:01:55.756Z,12.52
2022-10-22T14:05:03.272Z,11.63
2022-10-22T14:08:14.021Z,10.93
2022-10-22T14:11:18.140Z,11.43
2022-10-22T14:17:34.149Z,11.38
2022-10-22T14:20:41.974Z,11.77
2022-10-22T14:23:50.571Z,12.43
2022-10-22T14:27:03.906Z,12.27
2022-10-22T14:30:08.707Z,13.02
2022-10-22T14:33:35.114Z,12.02
2022-10-22T14:36:43.458Z,12.02
2022-10-22T14:39:51.880Z,11.15
2022-10-22T14:42:55.497Z,10.23
2022-10-22T14:45:59.289Z,11.40
2022-10-22T14:49:02.825Z,11.82
2022-10-22T14:52:09.549Z,12.57
2022-10-22T14:55:18.432Z,11.48
2022-10-22T14:58:21.637Z,11.70
2022-10-22T15:01:24.832Z,10.57
2022-10-22T15:04:28.195Z,11.07
2022-10-22T15:07:32.815Z,11.60
2022-10-22T15:10:35.870Z,9.80
2022-10-22T15:13:41.193Z,10.65
2022-10-22T15:16:44.645Z,11.07
2022-10-22T15:19:47.606Z,11.93
2022-10-22T15:22:52.004Z,12.77
2022-10-22T15:25:56.281Z,10.55
2022-10-22T15:29:01.040Z,9.30
2022-10-22T15:32:11.612Z,9.68
2022-10-22T15:35:15.818Z,11.68
2022-10-22T15:41:34.567Z,12.60
2022-10-22T15:44:41.437Z,12.13
2022-10-22T15:47:52.826Z,13.00
2022-10-22T15:51:00.113Z,14.50
2022-10-22T15:54:06.598Z,14.43
2022-10-22T15:57:13.520Z,14.80
2022-10-22T16:00:31.979Z,14.53
2022-10-22T16:03:38.636Z,13.15
2022-10-22T16:07:12.734Z,14.00
2022-10-22T16:10:28.381Z,11.55
2022-10-22T16:13:37.936Z,14.15
2022-10-22T16:16:46.474Z,18.35
2022-10-22T16:19:49.645Z,16.17
2022-10-22T16:22:54.226Z,16.50
2022-10-22T16:26:03.869Z,15.07
2022-10-22T16:29:08.423Z,13.25
2022-10-22T16:32:16.925Z,12.80
2022-10-22T16:35:24.349Z,16.60
2022-10-22T16:38:28.852Z,21.20
2022-10-22T16:41:36.386Z,21.27
2022-10-22T16:44:39.532Z,19.20
2022-10-22T16:47:43.415Z,16.98
2022-10-22T16:53:52.784Z,11.77
2022-10-22T16:56:57.637Z,13.65
2022-10-22T17:00:00.725Z,13.68
2022-10-22T17:03:19.044Z,11.90
2022-10-22T17:06:23.277Z,12.77
2022-10-22T17:09:26.360Z,11.88
2022-10-22T17:12:35.239Z,11.68
2022-10-22T17:15:38.381Z,10.85
2022-10-22T17:21:50.930Z,11.20
2022-10-22T17:25:12.740Z,12.75
2022-10-22T17:28:17.923Z,12.45
2022-10-22T17:31:25.431Z,11.43
2022-10-22T17:34:30.428Z,11.30
2022-10-22T17:37:34.250Z,11.75
2022-10-22T17:40:38.984Z,11.95
2022-10-22T17:43:43.746Z,11.52
2022-10-22T17:46:49.465Z,11.48
2022-10-22T17:49:53.505Z,13.30
2022-10-22T17:52:56.828Z,14.30
2022-10-22T17:56:05.222Z,13.05
2022-10-22T17:59:13.707Z,12.98
2022-10-22T18:02:19.388Z,12.32
2022-10-22T18:05:23.260Z,12.15
2022-10-22T18:11:32.431Z,8.32
2022-10-22T18:14:37.694Z,9.10
2022-10-22T18:17:43.627Z,9.43
2022-10-22T18:20:50.499Z,9.95
2022-10-22T18:23:53.909Z,10.25
2022-10-22T18:26:56.978Z,10.70
2022-10-22T18:30:01.411Z,9.90
2022-10-22T18:33:04.694Z,10.30
2022-10-22T18:36:12.750Z,9.93
2022-10-22T18:39:16.834Z,10.82
2022-10-22T18:42:20.742Z,9.90
2022-10-22T18:45:37.385Z,11.05
2022-10-22T18:48:40.566Z,11.43
2022-10-22T18:51:43.572Z,10.77
2022-10-22T18:54:46.739Z,10.35
2022-10-22T18:57:58.294Z,10.82
2022-10-22T19:01:27.372Z,11.15
2022-10-22T19:04:36.568Z,10.30
2022-10-22T19:07:40.953Z,10.65
2022-10-22T19:10:44.990Z,11.75
2022-10-22T19:13:48.567Z,10.77
2022-10-22T19:16:53.142Z,12.15
2022-10-22T19:19:56.367Z,12.10
2022-10-22T19:23:00.413Z,10.87
2022-10-22T19:26:07.238Z,11.98
2022-10-22T19:29:11.529Z,11.43
2022-10-22T19:32:16.537Z,13.10
2022-10-22T19:35:19.878Z,12.80
2022-10-22T19:38:23.508Z,11.70
2022-10-22T19:41:29.552Z,11.35
2022-10-22T19:44:32.722Z,12.05
2022-10-22T19:47:38.086Z,10.93
2022-10-22T19:50:42.677Z,10.75
2022-10-22T19:56:50.039Z,11.23
2022-10-22T19:59:53.304Z,11.30
2022-10-22T20:02:57.724Z,12.07
2022-10-22T20:06:00.885Z,13.18
2022-10-22T20:09:04.039Z,12.68
2022-10-22T20:12:07.709Z,12.75
2022-10-22T20:15:11.160Z,12.18
2022-10-22T20:18:15.784Z,12.77
2022-10-22T20:21:20.266Z,13.52
2022-10-22T20:24:23.604Z,13.45
2022-10-22T20:27:26.743Z,14.00
2022-10-22T20:30:29.927Z,12.98
2022-10-22T20:33:34.288Z,12.65
2022-10-22T20:36:37.445Z,13.40
2022-10-22T20:39:40.478Z,14.80
2022-10-22T20:42:43.914Z,13.45
2022-10-22T20:45:47.385Z,14.63
2022-10-22T20:48:54.408Z,15.13
2022-10-22T20:51:57.507Z,16.60
2022-10-22T20:55:00.482Z,16.13
2022-10-22T20:58:03.726Z,15.90
2022-10-22T21:01:12.006Z,14.83
2022-10-22T21:04:18.193Z,15.68
2022-10-22T21:07:21.324Z,17.00
2022-10-22T21:10:29.020Z,17.10
2022-10-22T21:13:35.693Z,17.55
2022-10-22T21:16:42.550Z,16.15
2022-10-22T21:19:46.978Z,16.38
2022-10-22T21:22:49.941Z,15.80
2022-10-22T21:25:58.305Z,16.38
2022-10-22T21:29:01.527Z,16.73
2022-10-22T21:32:04.642Z,16.53
2022-10-22T21:35:09.874Z,16.73
2022-10-22T21:38:12.887Z,16.13
2022-10-22T21:41:18.692Z,15.98
2022-10-22T21:44:21.813Z,16.35
2022-10-22T21:47:25.826Z,14.48
2022-10-22T21:50:31.236Z,15.63
2022-10-22T21:53:34.662Z,18.42
2022-10-22T21:56:38.269Z,17.38
2022-10-22T21:59:41.568Z,17.73
2022-10-22T22:02:44.874Z,18.55
2022-10-22T22:05:52.169Z,20.02
2022-10-22T22:08:56.525Z,16.92
2022-10-22T22:11:59.803Z,17.65
2022-10-22T22:15:02.931Z,19.03
2022-10-22T22:18:06.445Z,20.60
2022-10-22T22:21:19.622Z,20.52
2022-10-22T22:24:23.836Z,20.25
2022-10-22T22:30:30.272Z,20.27
2022-10-22T22:33:33.325Z,20.08
2022-10-22T22:36:39.978Z,19.92
2022-10-22T22:39:43.182Z,19.23
2022-10-22T22:42:46.434Z,20.83
2022-10-22T22:45:59.122Z,20.07
2022-10-22T22:49:02.308Z,17.35
2022-10-22T22:52:07.038Z,19.93
2022-10-22T22:55:10.828Z,19.77
2022-10-22T22:58:13.852Z,19.98
2022-10-22T23:01:19.601Z,20.38
2022-10-22T23:04:23.839Z,20.08
2022-10-22T23:10:31.311Z,16.40
2022-10-22T23:13:35.543Z,18.52
2022-10-22T23:19:45.202Z,16.75
2022-10-22T23:22:49.659Z,19.33
2022-10-22T23:25:55.982Z,15.90
2022-10-22T23:29:02.082Z,17.45
2022-10-22T23:32:09.325Z,15.68
2022-10-22T23:35:12.271Z,14.82
2022-10-22T23:38:16.639Z,13.80
2022-10-22T23:41:19.669Z,13.10
2022-10-22T23:44:23.957Z,12.90
2022-10-22T23:47:26.978Z,13.52
2022-10-22T23:50:30.413Z,12.38
2022-10-22T23:53:34.952Z,12.48
2022-10-22T23:56:38.181Z,12.07
2022-10-22T23:59:41.408Z,11.38
